Loda, Illinois
Current Conditions -  °F | °C
As of 4:10 AM on Thursday 23 Oct 2014 (Local Time) from KTIP Reporting Station
Clear Clear  
Wind Chill: 38°   Ceiling: Unl
Heat Index: 38°   Visibility: 10mi
Dew Point: 35°   Wind: 0mph
Humidity: 91%   Direction: NA
Pressure: 30.23"   Gusts: NA
Location:  40.52°N, 88.07°W
Report Text: KTIP 230910Z AUTO 00000KT 10SM CLR 03/02 A3023 RMK AO2 T00330019
Loading
Personal Weather Stations






























Interactive Weather Map
Tropical Storm Tracking
New forecast layout! Learn more

10-Day Weather Forecast

Advertisements
Track Severe Weather on mobile